METAR Data
IDs: Format: Raw Decoded Include TAF

Data at: 2057 UTC 18 Sep 2018

KF46 182035Z AUTO 22005KT 10SM BKN050 34/21 A2993 RMK AO2 T03390212
KF46 182015Z AUTO 00000KT 10SM SCT050 33/21 A2994 RMK AO2 T03310208
KF46 181955Z AUTO 23003KT 10SM BKN050 34/21 A2994 RMK AO2 T03350208
KF46 181935Z AUTO 19004KT 10SM BKN050 34/22 A2995 RMK AO2 T03360217
KF46 181915Z AUTO 20003KT 10SM BKN050 33/22 A2996 RMK AO2 T03290216
KF46 181835Z AUTO 25006KT 10SM SCT050 33/21 A2998 RMK AO2 T03310214
KF46 181815Z AUTO 23005KT 10SM CLR 33/21 A2999 RMK AO2 T03310212
KF46 181755Z AUTO 26005KT 10SM CLR 33/21 A3000 RMK AO2 T03260209 10328 20236
KF46 181735Z AUTO 25004KT 10SM CLR 33/21 A3001 RMK AO2 T03260209
KF46 181715Z AUTO 29003KT 10SM CLR 32/21 A3001 RMK AO2 T03230214
KF46 181655Z AUTO 00000KT 10SM CLR 32/21 A3002 RMK AO2 T03170209
KF46 181635Z AUTO 24003KT 10SM CLR 31/21 A3002 RMK AO2 T03110213
KF46 181615Z AUTO 27005KT 10SM CLR 31/22 A3003 RMK AO2 T03070222
KF46 181555Z AUTO 25005KT 10SM CLR 31/22 A3003 RMK AO2 T03060221
KF46 181535Z AUTO 25008KT 10SM CLR 30/21 A3003 RMK AO2 T03020212
KF46 181515Z AUTO 24006KT 10SM CLR 30/21 A3003 RMK AO2 T03040208
KF46 181455Z AUTO 25004KT 10SM CLR 30/21 A3002 RMK AO2 T03000212
KF46 181435Z AUTO 00000KT 10SM CLR 29/21 A3002 RMK AO2 T02910214
KF46 181415Z AUTO 00000KT 10SM CLR 28/22 A3002 RMK AO2 T02830221
KF46 181355Z AUTO 00000KT 10SM CLR 27/23 A3002 RMK AO2 T02710228
KF46 181335Z AUTO 19003KT 10SM CLR 26/23 A3002 RMK AO2 T02610233
KF46 181315Z AUTO 19003KT 10SM CLR 25/23 A3001 RMK AO2 T02510233
KF46 181255Z AUTO 00000KT 10SM CLR 25/23 A3001 RMK AO2 T02450232
KF46 181235Z AUTO 19003KT 10SM CLR 24/23 A3001 RMK AO2 T02380230
KF46 181215Z AUTO 20004KT 10SM CLR 24/23 A3000 RMK AO2 T02360230
KF46 181155Z AUTO 19003KT 10SM CLR 24/23 A3000 RMK AO2 T02370230 10260 20237
KF46 181135Z AUTO 20004KT 10SM CLR 24/23 A2999 RMK AO2 T02370230
KF46 181115Z AUTO 20003KT 10SM CLR 24/23 A2999 RMK AO2 T02400230
KF46 181055Z AUTO 20003KT 10SM CLR 24/23 A2999 RMK AO2 T02400227
KF46 181035Z AUTO 20003KT 10SM CLR 24/23 A2999 RMK AO2 T02410228
KF46 181015Z AUTO 21003KT 10SM CLR 24/23 A2998 RMK AO2 T02420226
KF46 180955Z AUTO 20003KT 10SM CLR 24/23 A2998 RMK AO2 T02440225
KF46 180935Z AUTO 21003KT 10SM CLR 25/22 A2998 RMK AO2 T02450222
KF46 180915Z AUTO 20003KT 10SM CLR 25/22 A2998 RMK AO2 T02460222
KF46 180855Z AUTO 20004KT 10SM CLR 25/22 A2998 RMK AO2 T02470222
KF46 180835Z AUTO 19004KT 10SM CLR 25/22 A2998 RMK AO2 T02480222
KF46 180815Z AUTO 19004KT 10SM CLR 25/22 A2998 RMK AO2 T02500222
KF46 180755Z AUTO 19004KT 10SM CLR 25/22 A2998 RMK AO2 T02500223
KF46 180735Z AUTO 20003KT 10SM CLR 25/23 A2998 RMK AO2 T02490226
KF46 180715Z AUTO 18003KT 10SM CLR 25/23 A2998 RMK AO2 T02500225
KF46 180655Z AUTO 20003KT 10SM CLR 26/22 A2998 RMK AO2 T02550224
KF46 180635Z AUTO 19004KT 10SM CLR 26/23 A2998 RMK AO2 T02550225
KF46 180615Z AUTO 19004KT 10SM CLR 26/22 A2998 RMK AO2 T02580223
KF46 180555Z AUTO 19004KT 10SM CLR 26/22 A2998 RMK AO2 T02600222 10325 20260 403390230
KF46 180535Z AUTO 19004KT 10SM CLR 26/23 A2998 RMK AO2 T02600225
KF46 180515Z AUTO 20004KT 10SM CLR 26/23 A2998 RMK AO2 T02630225
KF46 180455Z AUTO 19004KT 10SM CLR 27/23 A2999 RMK AO2 T02650226
KF46 180435Z AUTO 19004KT 10SM CLR 27/23 A2998 RMK AO2 T02700226
KF46 180415Z AUTO 17004KT 10SM CLR 27/23 A2999 RMK AO2 T02700226
KF46 180355Z AUTO 19004KT 10SM CLR 28/23 A2998 RMK AO2 T02750227
KF46 180335Z AUTO 17005KT 10SM CLR 28/23 A2998 RMK AO2 T02750228
KF46 180315Z AUTO 17004KT 10SM CLR 28/23 A2998 RMK AO2 T02760228
KF46 180255Z AUTO 15004KT 10SM CLR 28/22 A2997 RMK AO2 T02770223
KF46 180235Z AUTO 19004KT 10SM CLR 29/22 A2996 RMK AO2 T02870222
KF46 180215Z AUTO 21003KT 10SM CLR 29/23 A2995 RMK AO2 T02910225
KF46 180155Z AUTO 22004KT 10SM CLR 30/22 A2994 RMK AO2 T02960222
KF46 180135Z AUTO 21003KT 10SM CLR 30/22 A2993 RMK AO2 T02980224
KF46 180115Z AUTO 22004KT 10SM CLR 30/22 A2993 RMK AO2 T03040221
KF46 180055Z AUTO 22004KT 10SM CLR 31/22 A2992 RMK AO2 T03070220
KF46 180035Z AUTO 22004KT 10SM CLR 31/22 A2992 RMK AO2 T03110215
KF46 180015Z AUTO 22005KT 10SM CLR 32/21 A2992 RMK AO2 T03170213
KF46 172355Z AUTO 20004KT 10SM CLR 33/21 A2992 RMK AO2 T03260210 10339 20323
KF46 172335Z AUTO 22007KT 10SM SCT055 33/21 A2992 RMK AO2 T03310211
KF46 172315Z AUTO 20005KT 10SM SCT055 33/21 A2992 RMK AO2 T03320208
KF46 172255Z AUTO 20005KT 10SM SCT055 33/21 A2992 RMK AO2 T03330210
KF46 172235Z AUTO 22006KT 10SM SCT055 34/21 A2992 RMK AO2 T03360207
KF46 172215Z AUTO 26005KT 10SM CLR 34/21 A2992 RMK AO2 T03360212
KF46 172155Z AUTO 28005KT 10SM CLR 34/21 A2993 RMK AO2 T03350208
KF46 172135Z AUTO 26005KT 10SM CLR 34/21 A2993 RMK AO2 T03360208
KF46 172115Z AUTO 26005KT 10SM CLR 34/21 A2993 RMK AO2 T03380209
KF46 172055Z AUTO 29004KT 10SM CLR 34/21 A2994 RMK AO2 T03360210
KF46 172035Z AUTO 26005KT 10SM CLR 34/21 A2995 RMK AO2 T03350211
KF46 172015Z AUTO 26005KT 10SM CLR 34/21 A2995 RMK AO2 LTG DSNT N T03350213
KF46 171955Z AUTO 26008KT 10SM CLR 33/21 A2995 RMK AO2 T03320212
KF46 171935Z AUTO 26004KT 10SM CLR 33/21 A2996 RMK AO2 T03310212
KF46 171915Z AUTO 26009KT 10SM CLR 33/22 A2997 RMK AO2 T03290217
KF46 171855Z AUTO 24007KT 10SM CLR 33/22 A2998 RMK AO2 T03300216
KF46 171835Z AUTO 27007KT 10SM CLR 33/22 A2999 RMK AO2 T03280218
KF46 171815Z AUTO 25005KT 10SM CLR 33/22 A2999 RMK AO2 T03260220
KF46 171755Z AUTO 26007KT 10SM CLR 33/23 A3000 RMK AO2 T03260227 10326 20234
KF46 171735Z AUTO 25005KT 10SM CLR 32/23 A3001 RMK AO2 T03200227
KF46 171715Z AUTO 28004KT 10SM CLR 32/23 A3001 RMK AO2 T03190229
KF46 171655Z AUTO 00000KT 10SM CLR 31/23 A3002 RMK AO2 T03110228
KF46 171635Z AUTO 25005KT 10SM CLR 31/23 A3002 RMK AO2 T03120230
KF46 171615Z AUTO 00000KT 10SM CLR 31/22 A3002 RMK AO2 T03090219
KF46 171555Z AUTO 26004KT 10SM CLR 31/22 A3002 RMK AO2 T03060224
KF46 171535Z AUTO 00000KT 10SM CLR 30/23 A3002 RMK AO2 T02990230
KF46 171515Z AUTO 19003KT 10SM CLR 29/23 A3001 RMK AO2 T02930234
KF46 171455Z AUTO 00000KT 10SM CLR 29/23 A3001 RMK AO2 T02870230
KF46 171435Z AUTO 00000KT 10SM CLR 28/23 A3000 RMK AO2 T02830234
KF46 171415Z AUTO 00000KT 10SM CLR 28/23 A3000 RMK AO2 T02800234
KF46 171355Z AUTO 00000KT 10SM CLR 27/23 A3000 RMK AO2 T02690233
KF46 171335Z AUTO 00000KT 10SM CLR 25/23 A2999 RMK AO2 T02520231
KF46 171315Z AUTO 00000KT 10SM CLR 24/22 A2998 RMK AO2 T02440224
KF46 171255Z AUTO 00000KT 10SM CLR 24/22 A2998 RMK AO2 T02400221
KF46 171235Z AUTO 00000KT 10SM CLR 24/22 A2997 RMK AO2 T02390216
KF46 171215Z AUTO 00000KT 10SM CLR 24/22 A2997 RMK AO2 T02360217
KF46 171155Z AUTO 00000KT 10SM CLR 23/22 A2996 RMK AO2 T02340217 10261 20230
KF46 171135Z AUTO 00000KT 10SM CLR 23/22 A2996 RMK AO2 T02330215
KF46 171115Z AUTO 00000KT 10SM CLR 23/22 A2996 RMK AO2 T02340217
KF46 171055Z AUTO 00000KT 10SM CLR 24/22 A2995 RMK AO2 T02360215
KF46 171035Z AUTO 00000KT 10SM CLR 24/21 A2995 RMK AO2 T02360212
KF46 171015Z AUTO 00000KT 10SM CLR 23/22 A2995 RMK AO2 T02320218
KF46 170955Z AUTO 21003KT 10SM CLR 24/21 A2995 RMK AO2 T02400212
KF46 170935Z AUTO 24006KT 10SM CLR 24/22 A2995 RMK AO2 T02400222
KF46 170915Z AUTO 00000KT 10SM CLR 24/23 A2994 RMK AO2 T02410230